Chatsworth, Canada
Current Conditions -  °F | °C
As of 10:00 AM on Monday 22 Dec 2014 (Local Time) from CYVV Reporting Station
Overcast Overcast  
Wind Chill: 23°   Ceiling: 2800
Heat Index: 28°   Visibility: 15mi
Dew Point: 23°   Wind: 5mph
Humidity: 80%   Direction: 90°E
Pressure: 30.17"   Gusts: NA
Location:  44.45°N, 80.88°W
Report Text: CYVV 221500Z 09004KT 15SM OVC028 M02/M05 A3017 RMK SC8 SLP226
Loading
Personal Weather Stations






























Interactive Weather Map New forecast layout! Learn more

10-Day Weather Forecast

Advertisements
Track Severe Weather on mobile